Palflot-5 — UBHC — position and weather

sailwx.info

Track history (hours):
 
Tides and Currents Weather Stations Pressure Air Temp Water Temp Dewpoint Dewpoint Depression Visibility Wind Speed Wind Dir Waves Ship Positions

Palflot-5

Last reported at 2015-Sep-02 12:31 UTC. Time now 2015-Sep-02 12:50 UTC.
Position N 44°52' E 036°34'.

Length 122 m; draft 2.7 m.

Type: Tanker. MMSI: 273443040.

Date/timePositionNaut miles runAvg speedWind from/ knotsBaromVisibWave heightAir tempDewpointWater temp
2015-Sep-02 12:31N 44°52' E 036°34'0 0.0
2015-Sep-02 11:31N 44°52' E 036°34'0 0.0
2015-Sep-02 10:28N 44°52' E 036°34'0 0.0
2015-Sep-02 09:31N 44°52' E 036°34'0 0.0
2015-Sep-02 08:28N 44°52' E 036°34'0 0.0
2015-Sep-02 07:28N 44°52' E 036°34'0 0.0
2015-Sep-02 05:31N 44°52' E 036°34'0 0.0
2015-Sep-02 04:31N 44°52' E 036°34'0 0.0
2015-Sep-02 03:31N 44°52' E 036°34'0 0.0
2015-Sep-02 02:31N 44°52' E 036°34'0 0.0
2015-Sep-02 01:28N 44°52' E 036°34'0 0.0
2015-Sep-02 00:28N 44°52' E 036°34'0 0.0
2015-Sep-01 23:31N 44°52' E 036°34'5 4.9
2015-Sep-01 22:33N 44°48' E 036°33'2 1.7
2015-Sep-01 21:33N 44°46' E 036°33'0 0.0
2015-Sep-01 20:34N 44°46' E 036°33'0 0.0
2015-Sep-01 19:33N 44°46' E 036°33'0 0.0
2015-Sep-01 18:33N 44°46' E 036°33'0 0.0
2015-Sep-01 17:34N 44°46' E 036°33'0 0.0
2015-Sep-01 16:33N 44°46' E 036°33'0 0.0
2015-Sep-01 15:34N 44°46' E 036°33'0 0.0
2015-Sep-01 14:33N 44°46' E 036°33'0 0.0
2015-Sep-01 13:33N 44°46' E 036°33'0 0.0
2015-Sep-01 12:34N 44°46' E 036°33'0 0.0
2015-Sep-01 11:33N 44°46' E 036°33'0 0.0
2015-Sep-01 10:33N 44°46' E 036°33'0 0.0
2015-Sep-01 09:34N 44°46' E 036°33'0 0.0
2015-Sep-01 08:34N 44°46' E 036°33'3 3.1
2015-Sep-01 07:33N 44°48' E 036°30'6 6.0
2015-Sep-01 06:34N 44°54' E 036°29'7 6.7
2015-Sep-01 05:33N 45°00' E 036°30'  
Track history (hours):
 
Tides and Currents Weather Stations Pressure Air Temp Water Temp Dewpoint Dewpoint Depression Visibility Wind Speed Wind Dir Waves Ship Positions

Palflot-5

Last reported at 2015-Sep-02 12:31 UTC. Time now 2015-Sep-02 12:50 UTC.
Position N 44°52' E 036°34'.

Length 122 m; draft 2.7 m.

Type: Tanker. MMSI: 273443040.

Date/timePositionNaut miles runAvg speedWind from/ knotsBaromVisibWave heightAir tempDewpointWater temp
2015-Sep-02 12:31N 44°52' E 036°34'0 0.0
2015-Sep-02 11:31N 44°52' E 036°34'0 0.0
2015-Sep-02 10:28N 44°52' E 036°34'0 0.0
2015-Sep-02 09:31N 44°52' E 036°34'0 0.0
2015-Sep-02 08:28N 44°52' E 036°34'0 0.0
2015-Sep-02 07:28N 44°52' E 036°34'0 0.0
2015-Sep-02 05:31N 44°52' E 036°34'0 0.0
2015-Sep-02 04:31N 44°52' E 036°34'0 0.0
2015-Sep-02 03:31N 44°52' E 036°34'0 0.0
2015-Sep-02 02:31N 44°52' E 036°34'0 0.0
2015-Sep-02 01:28N 44°52' E 036°34'0 0.0
2015-Sep-02 00:28N 44°52' E 036°34'0 0.0
2015-Sep-01 23:31N 44°52' E 036°34'5 4.9
2015-Sep-01 22:33N 44°48' E 036°33'2 1.7
2015-Sep-01 21:33N 44°46' E 036°33'0 0.0
2015-Sep-01 20:34N 44°46' E 036°33'0 0.0
2015-Sep-01 19:33N 44°46' E 036°33'0 0.0
2015-Sep-01 18:33N 44°46' E 036°33'0 0.0
2015-Sep-01 17:34N 44°46' E 036°33'0 0.0
2015-Sep-01 16:33N 44°46' E 036°33'0 0.0
2015-Sep-01 15:34N 44°46' E 036°33'0 0.0
2015-Sep-01 14:33N 44°46' E 036°33'0 0.0
2015-Sep-01 13:33N 44°46' E 036°33'0 0.0
2015-Sep-01 12:34N 44°46' E 036°33'0 0.0
2015-Sep-01 11:33N 44°46' E 036°33'0 0.0
2015-Sep-01 10:33N 44°46' E 036°33'0 0.0
2015-Sep-01 09:34N 44°46' E 036°33'0 0.0
2015-Sep-01 08:34N 44°46' E 036°33'3 3.1
2015-Sep-01 07:33N 44°48' E 036°30'6 6.0
2015-Sep-01 06:34N 44°54' E 036°29'7 6.7
2015-Sep-01 05:33N 45°00' E 036°30'  

Dump ship's entire track history